Time;durP1;ratioP1;P1;durP2;ratioP2;P2;SDS_P1;SDS_P2;PMS_P1;PMS_P2;Temp;Humidity;BMP_temperature;BMP_pressure;BME280_temperature;BME280_humidity;BME280_pressure;Samples;Min_cycle;Max_cycle;Signal;HPM_P1;HPM_P2
2022/09/23 00:01:16;;;;;;;8.98;5.85;;;9.00;99.90;;;;;;5021367;28;20462;-72
2022/09/23 00:03:45;;;;;;;7.32;5.40;;;9.00;99.90;;;;;;5021327;28;20058;-73
2022/09/23 00:06:13;;;;;;;10.60;6.10;;;9.00;99.90;;;;;;5021330;28;20088;-72
2022/09/23 00:08:39;;;;;;;7.75;5.78;;;9.00;99.90;;;;;;5021524;28;20046;-72
2022/09/23 00:11:17;;;;;;;9.82;6.20;;;9.00;99.90;;;;;;5004568;28;20076;-72
2022/09/23 00:13:44;;;;;;;10.55;6.60;;;9.00;99.90;;;;;;5021805;28;20053;-72
2022/09/23 00:16:12;;;;;;;8.18;6.38;;;8.90;99.90;;;;;;5021406;28;20050;-71
2022/09/23 00:18:38;;;;;;;9.57;6.20;;;8.90;99.90;;;;;;5021110;28;20537;-73
2022/09/23 00:21:09;;;;;;;7.32;5.45;;;8.90;99.90;;;;;;5021664;28;20093;-71
2022/09/23 00:23:36;;;;;;;9.75;5.63;;;8.90;99.90;;;;;;5021313;28;20060;-72
2022/09/23 00:26:04;;;;;;;8.10;6.13;;;8.90;99.90;;;;;;5021191;28;20450;-72
2022/09/23 00:28:31;;;;;;;9.30;5.93;;;8.90;99.90;;;;;;5021127;28;20060;-72
2022/09/23 00:31:00;;;;;;;9.35;7.30;;;8.90;99.90;;;;;;5004089;28;20050;-72
2022/09/23 00:33:26;;;;;;;9.45;5.82;;;8.90;99.90;;;;;;5021215;28;20038;-70
2022/09/23 00:35:58;;;;;;;10.65;6.07;;;8.90;99.90;;;;;;5021110;28;20116;-72
2022/09/23 00:38:23;;;;;;;7.63;5.43;;;8.90;99.90;;;;;;5003883;28;20050;-72
2022/09/23 00:40:49;;;;;;;10.55;5.50;;;8.90;99.90;;;;;;5021500;28;20090;-72
2022/09/23 00:43:16;;;;;;;9.18;6.07;;;8.90;99.90;;;;;;5021231;28;20116;-72
2022/09/23 00:45:47;;;;;;;8.10;5.80;;;9.10;99.90;;;;;;5021012;28;20046;-71
2022/09/23 00:48:19;;;;;;;8.90;5.93;;;8.90;99.90;;;;;;5021193;28;20070;-72
2022/09/23 00:50:52;;;;;;;8.82;5.47;;;8.90;99.90;;;;;;5004206;28;20062;-73
2022/09/23 00:53:22;;;;;;;7.68;5.82;;;8.90;99.90;;;;;;5021096;28;20116;-72
2022/09/23 00:55:59;;;;;;;8.02;5.43;;;8.90;99.90;;;;;;5020961;28;20073;-74
2022/09/23 00:58:30;;;;;;;9.15;5.72;;;8.80;99.90;;;;;;5021309;28;20073;-71
2022/09/23 01:00:58;;;;;;;9.10;5.75;;;8.80;99.90;;;;;;5020422;28;20045;-75
2022/09/23 01:03:24;;;;;;;7.82;5.82;;;8.80;99.90;;;;;;5017431;28;20083;-74
2022/09/23 01:05:51;;;;;;;8.52;5.35;;;8.80;99.90;;;;;;5017949;28;20042;-73
2022/09/23 01:08:17;;;;;;;7.43;5.00;;;9.00;99.90;;;;;;5017927;28;20475;-71
2022/09/23 01:11:19;;;;;;;9.25;5.80;;;8.80;99.90;;;;;;5017787;28;20049;-72
2022/09/23 01:14:05;;;;;;;7.57;5.60;;;8.80;99.90;;;;;;5017935;28;20437;-72
2022/09/23 01:16:43;;;;;;;10.05;5.55;;;8.80;99.90;;;;;;5017791;28;20053;-73
2022/09/23 01:19:53;;;;;;;7.95;5.63;;;8.80;99.90;;;;;;5017555;28;20057;-73
2022/09/23 01:22:37;;;;;;;7.63;5.43;;;8.80;99.90;;;;;;5017801;28;20056;-71
2022/09/23 01:25:24;;;;;;;8.80;5.55;;;8.70;99.90;;;;;;5017424;28;20089;-71
2022/09/23 01:28:20;;;;;;;7.22;5.70;;;8.70;99.90;;;;;;5000310;28;20121;-73
2022/09/23 01:31:28;;;;;;;9.30;5.65;;;8.70;99.90;;;;;;5017657;28;20435;-71
2022/09/23 01:33:56;;;;;;;6.85;5.20;;;8.70;99.90;;;;;;5000464;28;20129;-71
2022/09/23 01:36:38;;;;;;;7.72;5.60;;;8.70;99.90;;;;;;5017746;28;20050;-72
2022/09/23 01:39:19;;;;;;;8.95;6.50;;;8.70;99.90;;;;;;5017494;28;20442;-73
2022/09/23 01:42:00;;;;;;;9.60;6.28;;;8.80;99.90;;;;;;5016950;28;20504;-73
2022/09/23 01:44:38;;;;;;;8.20;6.82;;;8.70;99.90;;;;;;5017113;28;20042;-72
2022/09/23 01:47:21;;;;;;;7.20;6.22;;;8.60;99.90;;;;;;5017462;28;20057;-73
2022/09/23 01:49:51;;;;;;;11.63;7.25;;;8.90;99.90;;;;;;5017256;28;20085;-72
2022/09/23 01:52:37;;;;;;;10.15;7.32;;;8.60;99.90;;;;;;5016905;28;20332;-74
2022/09/23 01:55:23;;;;;;;8.38;5.90;;;8.60;99.90;;;;;;5017241;28;20054;-72
2022/09/23 01:57:57;;;;;;;7.50;5.97;;;8.60;99.90;;;;;;4999664;28;20057;-73
2022/09/23 02:00:24;;;;;;;10.80;6.43;;;8.60;99.90;;;;;;5016535;28;20112;-72
2022/09/23 02:03:03;;;;;;;10.27;6.95;;;8.60;99.90;;;;;;5016739;28;20052;-72
2022/09/23 02:05:36;;;;;;;9.15;7.05;;;8.60;99.90;;;;;;5016766;28;20042;-72
2022/09/23 02:08:12;;;;;;;9.73;7.15;;;8.70;99.90;;;;;;4999860;28;20158;-73
2022/09/23 02:10:56;;;;;;;10.68;6.80;;;8.60;99.90;;;;;;4999444;28;20386;-73
2022/09/23 02:13:31;;;;;;;9.98;6.15;;;8.70;99.90;;;;;;4998900;28;20050;-73
2022/09/23 02:16:02;;;;;;;10.45;7.05;;;8.70;99.90;;;;;;5016842;28;20355;-71
2022/09/23 02:18:33;;;;;;;8.88;6.85;;;8.70;99.90;;;;;;4999674;28;20049;-71
2022/09/23 02:21:04;;;;;;;7.88;6.30;;;8.70;99.90;;;;;;5016406;28;20108;-72
2022/09/23 02:23:42;;;;;;;8.68;6.65;;;8.70;99.90;;;;;;4999815;28;20422;-72
2022/09/23 02:26:07;;;;;;;11.23;6.35;;;8.70;99.90;;;;;;5016941;28;20038;-71
2022/09/23 02:28:51;;;;;;;9.32;7.32;;;8.70;99.90;;;;;;4998698;28;20448;-73
2022/09/23 02:31:29;;;;;;;9.07;6.82;;;8.70;99.90;;;;;;4999355;28;20046;-73
2022/09/23 02:34:06;;;;;;;9.50;7.30;;;8.70;99.90;;;;;;4999790;28;20038;-73
2022/09/23 02:36:48;;;;;;;10.35;6.97;;;8.70;99.90;;;;;;5016161;28;20045;-72
2022/09/23 02:39:16;;;;;;;8.98;6.80;;;8.70;99.90;;;;;;5016361;28;20055;-73
2022/09/23 02:42:03;;;;;;;8.85;6.60;;;8.70;99.90;;;;;;5015960;28;20157;-74
2022/09/23 02:44:29;;;;;;;10.27;7.22;;;8.60;99.90;;;;;;5015975;28;20115;-73
2022/09/23 02:46:56;;;;;;;10.32;8.43;;;8.60;99.90;;;;;;4998651;28;20120;-74
2022/09/23 02:49:28;;;;;;;8.50;6.53;;;8.60;99.90;;;;;;5016161;28;20505;-71
2022/09/23 02:51:55;;;;;;;8.13;6.60;;;8.50;99.90;;;;;;5016185;28;20045;-73
2022/09/23 02:54:27;;;;;;;10.95;7.68;;;8.50;99.90;;;;;;5015816;28;20049;-72
2022/09/23 02:56:53;;;;;;;12.00;7.43;;;8.40;99.90;;;;;;5015434;28;20042;-71
2022/09/23 02:59:21;;;;;;;8.02;6.80;;;8.40;99.90;;;;;;5015662;28;20060;-72
2022/09/23 03:02:28;;;;;;;10.73;6.97;;;8.40;99.90;;;;;;4999089;28;20053;-74
2022/09/23 03:05:06;;;;;;;9.07;6.75;;;8.40;99.90;;;;;;5001841;28;20061;-72
2022/09/23 03:07:43;;;;;;;9.57;7.65;;;8.30;99.90;;;;;;5015373;28;20045;-73
2022/09/23 03:10:15;;;;;;;8.95;7.25;;;8.30;99.90;;;;;;5015835;28;20350;-72
2022/09/23 03:13:04;;;;;;;7.63;6.75;;;8.30;99.90;;;;;;4998311;28;20050;-73
2022/09/23 03:16:04;;;;;;;8.73;7.15;;;8.20;99.90;;;;;;5015469;28;20054;-71
2022/09/23 03:18:39;;;;;;;9.93;7.55;;;8.20;99.90;;;;;;5015657;28;20161;-73
2022/09/23 03:21:14;;;;;;;10.25;7.75;;;8.10;99.90;;;;;;5015627;28;20045;-73
2022/09/23 03:23:42;;;;;;;7.80;7.00;;;8.10;99.90;;;;;;5015494;28;20476;-72
2022/09/23 03:26:14;;;;;;;10.00;8.40;;;8.00;99.90;;;;;;5014968;28;20366;-74
2022/09/23 03:28:43;;;;;;;11.25;9.77;;;8.00;99.90;;;;;;4998234;28;20133;-73
2022/09/23 03:31:11;;;;;;;8.77;7.57;;;7.90;99.90;;;;;;5015462;28;20085;-72
2022/09/23 03:33:40;;;;;;;8.70;7.32;;;7.90;99.90;;;;;;5015289;28;20057;-73
2022/09/23 03:39:09;;;;;;;12.48;9.10;;;7.80;99.90;;;;;;5015057;28;20053;-73
2022/09/23 03:41:44;;;;;;;10.20;9.10;;;7.80;99.90;;;;;;5015036;28;20470;-72
2022/09/23 03:44:10;;;;;;;11.68;10.00;;;7.80;99.90;;;;;;5015574;28;20045;-72
2022/09/23 03:46:36;;;;;;;11.15;9.85;;;7.70;99.90;;;;;;5014797;28;20062;-70
2022/09/23 03:49:26;;;;;;;12.23;8.70;;;7.80;99.90;;;;;;5015035;28;20060;-71
2022/09/23 03:51:52;;;;;;;11.15;9.98;;;7.70;99.90;;;;;;4998342;28;20445;-72
2022/09/23 03:54:19;;;;;;;11.80;8.98;;;7.70;99.90;;;;;;5014876;28;20057;-71
2022/09/23 03:56:46;;;;;;;13.35;10.23;;;7.70;99.90;;;;;;4998020;28;20069;-73
2022/09/23 03:59:17;;;;;;;13.07;9.85;;;7.70;99.90;;;;;;5017830;28;20047;-70
2022/09/23 04:01:44;;;;;;;11.77;9.85;;;7.70;99.90;;;;;;4999379;28;20041;-72
2022/09/23 04:04:10;;;;;;;10.88;9.57;;;7.70;99.90;;;;;;4994500;28;20103;-72
2022/09/23 04:06:36;;;;;;;11.38;10.25;;;7.60;99.90;;;;;;5034586;28;20428;-71
2022/09/23 04:09:01;;;;;;;10.63;9.30;;;7.60;99.90;;;;;;5034787;28;20037;-71
2022/09/23 04:11:27;;;;;;;12.30;10.15;;;7.60;99.90;;;;;;5017547;28;20115;-72
2022/09/23 04:13:55;;;;;;;11.27;10.15;;;7.60;99.90;;;;;;4992609;28;20042;-73
2022/09/23 04:16:20;;;;;;;12.98;11.57;;;7.50;99.90;;;;;;5013046;28;20045;-73
2022/09/23 04:18:46;;;;;;;12.70;11.40;;;7.50;99.90;;;;;;5014827;28;20366;-71
2022/09/23 04:21:12;;;;;;;13.68;12.27;;;7.60;99.90;;;;;;4996348;28;20153;-71
2022/09/23 04:23:38;;;;;;;12.77;11.48;;;7.60;99.90;;;;;;5005759;28;20129;-74
2022/09/23 04:26:04;;;;;;;14.93;12.15;;;7.60;99.90;;;;;;5033043;28;20038;-72
2022/09/23 04:28:30;;;;;;;12.73;11.43;;;7.60;99.90;;;;;;5034358;28;20488;-72
2022/09/23 04:30:56;;;;;;;12.93;11.60;;;7.60;99.90;;;;;;5034392;28;20057;-71
2022/09/23 04:33:23;;;;;;;12.63;11.32;;;7.60;99.90;;;;;;5034655;28;20462;-72
2022/09/23 04:35:50;;;;;;;14.10;12.63;;;7.60;99.90;;;;;;5034318;28;20461;-71
2022/09/23 04:38:17;;;;;;;15.73;14.02;;;7.60;99.90;;;;;;5037469;28;20055;-71
2022/09/23 04:40:43;;;;;;;15.75;14.15;;;7.50;99.90;;;;;;5037862;28;20084;-72
2022/09/23 04:43:08;;;;;;;14.88;13.05;;;7.50;99.90;;;;;;5020238;28;20482;-72
2022/09/23 04:45:34;;;;;;;14.88;13.38;;;7.50;99.90;;;;;;5037934;28;20107;-72
2022/09/23 04:48:01;;;;;;;16.95;15.18;;;7.50;99.90;;;;;;5038283;28;20054;-73
2022/09/23 04:50:27;;;;;;;16.17;14.45;;;7.50;99.90;;;;;;5038005;28;20076;-73
2022/09/23 04:52:54;;;;;;;17.83;15.05;;;7.50;99.90;;;;;;5038017;28;20046;-70
2022/09/23 04:55:20;;;;;;;20.55;16.77;;;7.50;99.90;;;;;;5020401;28;20049;-73
2022/09/23 04:57:46;;;;;;;18.58;16.67;;;7.80;99.90;;;;;;5037659;28;20045;-71
2022/09/23 05:00:14;;;;;;;18.85;16.98;;;7.50;99.90;;;;;;5020777;28;20049;-73
2022/09/23 05:02:47;;;;;;;19.08;17.08;;;7.50;99.90;;;;;;5037671;28;20095;-72
2022/09/23 05:05:16;;;;;;;22.25;17.83;;;7.50;99.90;;;;;;5020632;28;20454;-74
2022/09/23 05:07:42;;;;;;;20.10;17.98;;;7.50;99.90;;;;;;5037180;28;20458;-72
2022/09/23 05:10:08;;;;;;;18.48;16.58;;;7.50;99.90;;;;;;5037265;28;20052;-72
2022/09/23 05:12:33;;;;;;;20.08;18.08;;;7.60;99.90;;;;;;5037415;28;20077;-73
2022/09/23 05:14:59;;;;;;;18.73;16.92;;;7.60;99.90;;;;;;5019655;28;20054;-72
2022/09/23 05:17:25;;;;;;;21.10;18.88;;;7.60;99.90;;;;;;5036895;28;20458;-74
2022/09/23 05:19:50;;;;;;;17.73;15.82;;;7.70;99.90;;;;;;5037676;28;20049;-72
2022/09/23 05:22:16;;;;;;;18.23;16.27;;;7.70;99.90;;;;;;5037496;28;20045;-71
2022/09/23 05:24:41;;;;;;;20.02;16.02;;;7.70;99.90;;;;;;5037443;28;20124;-72
2022/09/23 05:27:07;;;;;;;20.90;18.70;;;7.70;99.90;;;;;;5037565;28;20053;-70
2022/09/23 05:29:33;;;;;;;19.35;17.35;;;7.70;99.90;;;;;;5037118;28;20412;-72
2022/09/23 05:32:00;;;;;;;19.75;17.65;;;8.00;99.90;;;;;;5019691;28;20049;-71
2022/09/23 05:34:26;;;;;;;18.50;16.52;;;7.70;99.90;;;;;;5036921;28;20057;-71
2022/09/23 05:36:51;;;;;;;18.27;16.45;;;7.80;99.90;;;;;;5036988;28;20576;-73
2022/09/23 05:39:17;;;;;;;19.08;17.00;;;7.80;99.90;;;;;;5036678;28;20095;-71
2022/09/23 05:41:43;;;;;;;20.23;16.17;;;7.90;99.90;;;;;;5036866;28;20048;-72
2022/09/23 05:44:08;;;;;;;19.83;16.65;;;7.90;99.90;;;;;;5020067;28;20046;-71
2022/09/23 05:46:34;;;;;;;17.52;15.77;;;7.90;99.90;;;;;;5036896;28;20136;-73
2022/09/23 05:49:01;;;;;;;18.55;16.65;;;7.90;99.90;;;;;;5036234;28;20112;-71
2022/09/23 05:51:27;;;;;;;18.50;16.52;;;8.00;99.90;;;;;;5019461;28;20049;-72
2022/09/23 05:53:54;;;;;;;20.33;16.23;;;8.20;99.90;;;;;;5036472;28;20054;-72
2022/09/23 05:56:25;;;;;;;19.38;17.17;;;8.00;99.90;;;;;;5019249;28;20125;-73
2022/09/23 05:58:53;;;;;;;18.70;16.80;;;8.10;99.90;;;;;;5036492;28;20051;-72
2022/09/23 06:01:23;;;;;;;19.83;17.80;;;8.10;99.90;;;;;;5036681;28;20365;-72
2022/09/23 06:03:50;;;;;;;19.40;17.40;;;8.20;99.90;;;;;;5019399;28;20046;-74
2022/09/23 06:06:17;;;;;;;18.35;16.45;;;8.30;99.90;;;;;;5036419;28;20108;-72
2022/09/23 06:08:44;;;;;;;20.50;18.13;;;8.50;99.90;;;;;;5036261;28;20088;-72
2022/09/23 06:11:10;;;;;;;18.10;16.30;;;8.50;99.90;;;;;;5036305;28;20120;-71
2022/09/23 06:13:37;;;;;;;17.58;15.82;;;8.60;99.90;;;;;;5036281;28;20050;-72
2022/09/23 06:16:14;;;;;;;18.17;15.80;;;8.80;99.90;;;;;;5036482;28;20045;-71
2022/09/23 06:18:41;;;;;;;17.50;14.90;;;9.00;99.90;;;;;;5035914;28;20335;-72
2022/09/23 06:21:10;;;;;;;15.75;14.15;;;9.00;99.90;;;;;;5035879;28;20088;-72
2022/09/23 06:23:36;;;;;;;17.67;15.18;;;9.10;99.90;;;;;;5034911;28;20073;-74
2022/09/23 06:26:04;;;;;;;17.35;14.18;;;9.20;99.90;;;;;;5016209;28;20431;-72
2022/09/23 06:28:31;;;;;;;17.40;15.60;;;9.30;99.90;;;;;;5015727;28;20095;-71
2022/09/23 06:30:58;;;;;;;16.27;13.68;;;9.40;99.90;;;;;;5016541;28;20057;-74
2022/09/23 06:33:24;;;;;;;17.50;15.40;;;9.60;99.90;;;;;;5016336;28;20037;-75
2022/09/23 06:36:01;;;;;;;17.90;14.07;;;9.60;99.90;;;;;;5016080;28;20132;-72
2022/09/23 06:38:28;;;;;;;16.00;14.30;;;9.70;99.90;;;;;;5015437;28;20045;-73
2022/09/23 06:40:55;;;;;;;16.65;14.18;;;9.80;99.90;;;;;;5015811;28;20061;-72
2022/09/23 06:43:22;;;;;;;14.13;12.45;;;9.90;99.90;;;;;;5016052;28;20045;-72
2022/09/23 06:45:52;;;;;;;16.45;14.13;;;10.00;99.90;;;;;;5015562;28;20379;-72
2022/09/23 06:48:18;;;;;;;15.38;13.60;;;10.20;99.90;;;;;;4998630;28;20112;-72
2022/09/23 06:50:44;;;;;;;16.55;13.20;;;10.20;99.90;;;;;;5016262;28;20435;-73
2022/09/23 06:53:10;;;;;;;16.23;13.90;;;10.30;99.90;;;;;;5014987;28;20046;-73
2022/09/23 06:55:35;;;;;;;14.88;13.38;;;10.50;99.90;;;;;;4996301;28;20414;-72
2022/09/23 06:58:01;;;;;;;15.73;14.13;;;10.80;99.90;;;;;;4996218;28;20043;-73
2022/09/23 07:00:28;;;;;;;15.90;13.63;;;10.70;99.90;;;;;;4995363;28;20038;-72
2022/09/23 07:02:53;;;;;;;15.27;13.65;;;10.90;99.90;;;;;;5012182;28;20367;-71
2022/09/23 07:05:21;;;;;;;15.98;12.70;;;10.90;99.90;;;;;;4996151;28;20050;-73
2022/09/23 07:07:47;;;;;;;13.70;12.30;;;10.90;99.90;;;;;;5011344;28;20058;-72
2022/09/23 07:10:13;;;;;;;15.20;13.30;;;11.00;99.90;;;;;;5014845;28;20056;-73
2022/09/23 07:12:39;;;;;;;14.02;11.40;;;11.00;99.90;;;;;;5013494;28;20050;-73
2022/09/23 07:15:05;;;;;;;19.65;14.05;;;11.00;99.90;;;;;;5015785;28;20064;-73
2022/09/23 07:17:30;;;;;;;13.88;12.40;;;11.10;99.90;;;;;;5015384;28;20058;-71
2022/09/23 07:19:57;;;;;;;13.98;11.57;;;11.10;99.90;;;;;;5011811;28;20057;-71
2022/09/23 07:22:24;;;;;;;15.80;11.40;;;11.20;99.90;;;;;;4995741;28;20042;-73
2022/09/23 07:24:50;;;;;;;14.23;12.73;;;11.30;99.90;;;;;;5011324;28;20050;-72
2022/09/23 07:27:18;;;;;;;15.65;12.35;;;11.30;99.90;;;;;;4995574;28;20537;-72
2022/09/23 07:29:44;;;;;;;12.23;10.88;;;11.40;99.90;;;;;;5011173;28;20042;-73
2022/09/23 07:32:10;;;;;;;14.48;12.98;;;11.40;99.90;;;;;;4978340;28;20050;-72
2022/09/23 07:34:36;;;;;;;14.88;12.45;;;11.60;99.90;;;;;;4995739;28;20363;-72
2022/09/23 07:37:01;;;;;;;18.05;11.43;;;11.60;99.90;;;;;;5011054;28;20042;-73
2022/09/23 07:39:28;;;;;;;17.63;12.40;;;11.60;99.90;;;;;;5011396;28;20050;-72
2022/09/23 07:41:54;;;;;;;15.23;12.02;;;11.80;99.90;;;;;;4995111;28;20064;-74
2022/09/23 07:44:20;;;;;;;14.45;11.75;;;11.70;99.90;;;;;;5010746;28;20133;-73
2022/09/23 07:46:48;;;;;;;13.68;11.82;;;11.80;99.90;;;;;;4995231;28;20062;-72
2022/09/23 07:49:13;;;;;;;21.38;13.60;;;11.80;99.90;;;;;;4995582;28;20371;-71
2022/09/23 07:51:41;;;;;;;14.70;11.23;;;11.80;99.90;;;;;;5012498;28;20057;-72
2022/09/23 07:54:10;;;;;;;12.30;11.00;;;11.90;99.90;;;;;;5009177;28;20377;-72
2022/09/23 07:56:37;;;;;;;12.63;10.57;;;11.90;99.90;;;;;;4997967;28;20346;-73
2022/09/23 07:59:04;;;;;;;12.55;10.27;;;12.00;99.90;;;;;;5015118;28;20045;-73
2022/09/23 08:01:38;;;;;;;14.25;11.48;;;12.20;99.90;;;;;;4998046;28;20390;-73
2022/09/23 08:04:20;;;;;;;16.45;11.20;;;12.10;99.90;;;;;;5014669;28;20395;-71
2022/09/23 08:06:51;;;;;;;14.55;11.07;;;12.20;99.90;;;;;;5013970;28;20045;-70
2022/09/23 08:09:18;;;;;;;14.63;10.20;;;12.30;99.90;;;;;;5015017;28;20082;-72
2022/09/23 08:11:43;;;;;;;16.83;10.43;;;12.50;99.90;;;;;;5017049;28;20064;-73
2022/09/23 08:14:12;;;;;;;14.40;10.60;;;12.50;99.90;;;;;;5019055;28;20041;-72
2022/09/23 08:16:41;;;;;;;11.60;10.20;;;12.60;99.90;;;;;;5001670;28;20140;-73
2022/09/23 08:19:07;;;;;;;12.30;9.82;;;12.70;99.90;;;;;;5018027;28;20100;-71
2022/09/23 08:21:32;;;;;;;12.32;10.93;;;12.80;99.90;;;;;;4999031;28;20050;-73
2022/09/23 08:23:58;;;;;;;14.45;10.43;;;12.80;99.90;;;;;;5017207;28;20042;-74
2022/09/23 08:26:24;;;;;;;13.05;10.30;;;13.00;99.90;;;;;;4998943;28;20112;-73
2022/09/23 08:28:52;;;;;;;12.50;10.70;;;13.10;99.90;;;;;;4982304;28;20094;-72
2022/09/23 08:31:22;;;;;;;13.00;9.35;;;13.20;99.90;;;;;;4998717;28;20399;-75
2022/09/23 08:33:53;;;;;;;12.68;9.00;;;13.30;99.90;;;;;;4999204;28;20125;-72
2022/09/23 08:36:19;;;;;;;12.35;10.55;;;13.40;99.90;;;;;;4998799;28;20383;-73
2022/09/23 08:38:44;;;;;;;13.13;10.55;;;13.60;99.90;;;;;;4998662;28;20057;-72
2022/09/23 08:41:28;;;;;;;11.52;9.95;;;13.70;99.90;;;;;;4998938;28;20054;-75
2022/09/23 08:43:56;;;;;;;;;;;13.90;99.90;;;;;;4999265;28;20042;-72
2022/09/23 08:46:28;;;;;;;11.57;8.38;;;14.10;99.90;;;;;;4998410;28;20386;-70
2022/09/23 08:48:54;;;;;;;12.85;8.50;;;14.10;99.90;;;;;;4999322;28;20117;-74
2022/09/23 08:51:45;;;;;;;10.88;8.48;;;14.30;99.90;;;;;;4998423;28;20042;-70
2022/09/23 08:54:11;;;;;;;9.82;8.77;;;14.40;99.90;;;;;;4998250;28;20042;-71
2022/09/23 08:56:37;;;;;;;9.38;8.07;;;14.60;99.90;;;;;;4998668;28;20121;-71
2022/09/23 08:59:21;;;;;;;11.65;8.25;;;14.60;99.90;;;;;;4998232;28;20062;-72
2022/09/23 09:02:13;;;;;;;10.43;7.60;;;14.70;99.90;;;;;;4998616;28;20046;-70
2022/09/23 09:04:43;;;;;;;19.63;8.20;;;14.70;99.90;;;;;;4979949;28;20062;-72
2022/09/23 09:07:08;;;;;;;14.25;8.13;;;14.90;99.90;;;;;;5013615;28;20046;-72
2022/09/23 09:09:57;;;;;;;11.27;8.25;;;15.00;99.90;;;;;;5008109;28;20061;-71
2022/09/23 09:12:43;;;;;;;10.88;7.65;;;15.00;99.90;;;;;;5018069;28;20045;-70
2022/09/23 09:15:26;;;;;;;19.63;7.57;;;15.00;99.90;;;;;;5018401;28;20057;-74
2022/09/23 09:18:03;;;;;;;10.23;7.65;;;15.10;99.90;;;;;;5017462;28;20095;-71
2022/09/23 09:20:48;;;;;;;10.05;7.07;;;15.20;99.90;;;;;;4999955;28;20120;-72
2022/09/23 09:23:22;;;;;;;12.88;8.27;;;15.20;99.90;;;;;;5011718;28;20065;-72
2022/09/23 09:25:51;;;;;;;13.02;8.25;;;15.30;99.90;;;;;;5009686;28;20204;-73
2022/09/23 09:28:29;;;;;;;11.52;7.40;;;15.30;99.90;;;;;;5017336;28;20077;-74
2022/09/23 09:31:01;;;;;;;11.77;7.55;;;15.30;99.90;;;;;;5000282;28;20517;-72
2022/09/23 09:34:02;;;;;;;11.52;7.65;;;15.30;99.90;;;;;;5017204;28;20053;-74
2022/09/23 09:36:37;;;;;;;12.63;7.28;;;15.30;99.90;;;;;;5013597;28;20053;-72
2022/09/23 09:39:03;;;;;;;9.50;7.00;;;15.30;99.90;;;;;;4989927;28;20085;-72
2022/09/23 09:41:30;;;;;;;11.10;7.55;;;15.30;99.90;;;;;;4980596;28;20086;-73
2022/09/23 09:43:58;;;;;;;11.45;7.18;;;15.30;99.90;;;;;;4997386;28;20097;-73
2022/09/23 09:46:43;;;;;;;9.23;6.43;;;15.40;99.90;;;;;;4996917;28;20467;-74
2022/09/23 09:49:15;;;;;;;9.48;6.45;;;15.30;99.90;;;;;;4979887;28;20058;-74
2022/09/23 09:51:41;;;;;;;11.38;6.78;;;15.30;99.90;;;;;;4997469;28;20069;-72
2022/09/23 09:54:37;;;;;;;9.13;7.10;;;15.40;99.90;;;;;;5013264;28;20050;-72
2022/09/23 09:57:05;;;;;;;12.65;6.55;;;15.40;99.90;;;;;;4993910;28;20487;-74
2022/09/23 09:59:31;;;;;;;11.02;6.97;;;15.40;99.90;;;;;;4997389;28;20457;-73
2022/09/23 10:02:23;;;;;;;8.57;7.22;;;15.50;99.90;;;;;;5012704;28;20054;-72
2022/09/23 10:05:25;;;;;;;9.98;6.28;;;15.50;99.90;;;;;;5012955;28;20054;-75
2022/09/23 10:07:52;;;;;;;9.32;6.32;;;15.60;99.90;;;;;;4996871;28;20058;-73
2022/09/23 10:10:22;;;;;;;10.52;7.05;;;15.70;99.90;;;;;;4997404;28;20046;-73
2022/09/23 10:12:48;;;;;;;9.25;6.80;;;15.80;99.90;;;;;;4996797;28;20101;-73
2022/09/23 10:15:30;;;;;;;10.20;6.68;;;15.90;99.90;;;;;;4979813;28;20447;-73
2022/09/23 10:17:56;;;;;;;10.75;5.90;;;15.90;99.90;;;;;;4979891;28;20513;-74
2022/09/23 10:20:22;;;;;;;11.32;6.30;;;16.00;99.90;;;;;;4997015;28;20050;-73
2022/09/23 10:22:47;;;;;;;11.82;6.18;;;16.00;99.90;;;;;;4997137;28;20348;-73
2022/09/23 10:25:23;;;;;;;12.35;6.22;;;16.10;99.90;;;;;;4997095;28;20050;-73
2022/09/23 10:27:49;;;;;;;8.98;6.72;;;16.10;99.90;;;;;;5015031;28;20130;-74
2022/09/23 10:30:20;;;;;;;8.57;6.13;;;16.20;99.90;;;;;;5016247;28;20045;-73
2022/09/23 10:32:46;;;;;;;7.30;5.22;;;16.20;99.90;;;;;;5016089;28;20050;-73
2022/09/23 10:35:23;;;;;;;9.43;6.07;;;16.20;99.90;;;;;;5016278;28;20046;-72
2022/09/23 10:37:59;;;;;;;10.30;5.75;;;16.40;99.90;;;;;;4999260;28;20042;-74
2022/09/23 10:46:44;;;;;;;10.77;6.07;;;16.60;99.90;;;;;;4996003;28;20451;-75
2022/09/23 10:49:28;;;;;;;9.80;5.82;;;16.60;99.90;;;;;;4996411;28;20463;-73
2022/09/23 10:52:01;;;;;;;8.50;6.13;;;16.70;99.90;;;;;;4996555;28;20082;-72
2022/09/23 10:54:33;;;;;;;9.40;5.85;;;16.70;99.90;;;;;;4996250;28;20212;-73
2022/09/23 10:57:42;;;;;;;8.25;6.13;;;16.70;99.90;;;;;;5006584;28;20045;-74
2022/09/23 11:00:17;;;;;;;8.88;6.00;;;16.70;99.90;;;;;;5015595;28;20069;-72
2022/09/23 11:02:46;;;;;;;8.90;6.15;;;16.70;99.90;;;;;;5015992;28;20397;-74
2022/09/23 11:05:39;;;;;;;8.10;5.82;;;16.70;99.90;;;;;;5015976;28;20099;-74
2022/09/23 11:08:32;;;;;;;10.55;6.80;;;16.70;99.90;;;;;;5015631;28;20061;-73
2022/09/23 11:11:10;;;;;;;10.98;5.88;;;16.70;99.90;;;;;;4998737;28;20046;-74
2022/09/23 11:13:47;;;;;;;9.68;7.03;;;16.80;99.90;;;;;;5015932;28;20108;-72
2022/09/23 11:16:30;;;;;;;16.00;6.80;;;16.80;99.90;;;;;;5015589;28;20356;-74
2022/09/23 11:19:47;;;;;;;12.43;7.70;;;16.80;99.90;;;;;;5015384;28;20129;-72
2022/09/23 11:22:33;;;;;;;10.82;7.47;;;16.90;99.90;;;;;;4971750;28;20092;-73
2022/09/23 11:25:32;;;;;;;14.10;8.93;;;16.90;99.90;;;;;;5015616;28;20100;-74
2022/09/23 11:28:17;;;;;;;13.88;10.32;;;17.00;99.90;;;;;;4995986;28;20104;-73
2022/09/23 11:31:19;;;;;;;16.13;12.15;;;17.10;99.90;;;;;;4995834;28;20101;-73
2022/09/23 11:33:57;;;;;;;27.00;18.27;;;17.10;99.90;;;;;;4973885;28;20093;-73
2022/09/23 11:36:36;;;;;;;10.77;8.38;;;17.20;99.90;;;;;;4995420;28;20112;-75
2022/09/23 11:39:16;;;;;;;11.10;7.65;;;17.30;99.90;;;;;;4995565;28;20081;-75
2022/09/23 11:41:43;;;;;;;10.93;7.20;;;17.20;99.90;;;;;;4995709;28;20046;-75
2022/09/23 11:44:16;;;;;;;11.73;6.65;;;17.30;99.90;;;;;;4994858;28;20478;-73
2022/09/23 11:46:50;;;;;;;9.73;7.60;;;17.30;99.90;;;;;;4995293;28;20350;-73
2022/09/23 11:49:26;;;;;;;16.65;11.50;;;17.30;99.90;;;;;;4995628;28;20061;-75
2022/09/23 11:52:00;;;;;;;11.15;7.88;;;17.30;99.90;;;;;;4995617;28;20049;-73
2022/09/23 11:54:44;;;;;;;11.35;7.05;;;17.30;99.90;;;;;;5010509;28;20054;-76
2022/09/23 11:57:25;;;;;;;14.35;8.50;;;17.30;99.90;;;;;;4978597;28;20042;-72
2022/09/23 12:00:01;;;;;;;12.13;7.75;;;17.40;99.90;;;;;;4995529;28;20057;-73
2022/09/23 12:02:47;;;;;;;10.55;6.20;;;17.40;99.90;;;;;;4995581;28;20051;-74
2022/09/23 12:05:18;;;;;;;9.27;7.10;;;17.40;99.90;;;;;;4995216;28;20072;-74
2022/09/23 12:07:47;;;;;;;11.93;7.32;;;17.50;99.90;;;;;;4995036;28;20046;-75
2022/09/23 12:10:14;;;;;;;10.60;7.50;;;17.50;99.90;;;;;;4995694;28;20068;-73
2022/09/23 12:13:04;;;;;;;9.70;7.18;;;17.50;99.90;;;;;;4995349;28;20046;-74
2022/09/23 12:15:41;;;;;;;9.80;7.95;;;17.50;99.90;;;;;;4995158;28;20138;-72
2022/09/23 12:18:24;;;;;;;8.27;6.65;;;17.50;99.90;;;;;;5011132;28;20101;-72
2022/09/23 12:21:01;;;;;;;11.05;7.53;;;17.50;99.90;;;;;;4995573;28;20047;-74
2022/09/23 12:23:38;;;;;;;18.88;11.65;;;17.50;99.90;;;;;;4995010;28;20097;-74
2022/09/23 12:26:11;;;;;;;29.77;17.00;;;17.50;99.90;;;;;;5011226;28;20038;-74
2022/09/23 12:28:45;;;;;;;10.45;7.95;;;17.50;99.90;;;;;;5014817;28;20064;-74
2022/09/23 12:31:16;;;;;;;11.88;8.07;;;17.50;99.90;;;;;;5014683;28;20045;-72
2022/09/23 12:33:52;;;;;;;12.82;8.73;;;17.60;99.90;;;;;;5014699;28;20046;-73
2022/09/23 12:36:44;;;;;;;12.88;8.70;;;17.70;99.90;;;;;;5015280;28;20129;-74
2022/09/23 12:39:48;;;;;;;11.93;7.78;;;17.80;99.90;;;;;;5010748;28;20104;-73
2022/09/23 12:42:15;;;;;;;;;;;17.80;99.90;;;;;;4935125;29;20385;-75
2022/09/23 12:44:44;;;;;;;9.10;6.97;;;17.80;99.90;;;;;;4916062;29;20361;-74
2022/09/23 12:47:24;;;;;;;13.43;7.28;;;17.90;99.90;;;;;;4954881;28;20054;-73
2022/09/23 12:49:52;;;;;;;19.40;7.97;;;17.90;99.90;;;;;;4994943;28;20058;-73
2022/09/23 12:52:17;;;;;;;10.25;7.63;;;17.90;99.90;;;;;;4994703;28;20042;-74
2022/09/23 12:54:45;;;;;;;8.73;7.07;;;17.80;99.90;;;;;;4994740;28;20336;-73
2022/09/23 12:57:12;;;;;;;9.00;6.85;;;18.00;99.90;;;;;;4994736;28;20093;-72
2022/09/23 13:00:13;;;;;;;13.30;7.35;;;18.00;99.90;;;;;;5001469;28;20045;-73
2022/09/23 13:02:46;;;;;;;8.15;5.63;;;18.10;99.90;;;;;;5018034;28;20425;-74
2022/09/23 13:08:13;;;;;;;11.75;7.40;;;18.20;99.90;;;;;;5017922;28;20154;-72
2022/09/23 13:10:38;;;;;;;12.18;7.60;;;18.20;99.90;;;;;;5017716;28;20478;-74
2022/09/23 13:13:06;;;;;;;9.60;6.97;;;18.20;99.90;;;;;;5012425;28;20057;-73
2022/09/23 13:15:34;;;;;;;10.77;7.35;;;18.20;99.90;;;;;;4998102;28;20462;-73
2022/09/23 13:18:19;;;;;;;12.43;7.63;;;18.10;99.90;;;;;;4998439;28;20136;-73
2022/09/23 13:20:45;;;;;;;13.43;7.82;;;18.20;99.90;;;;;;4997962;28;20051;-74